Terminal Aerodrome Forecast
Issued by NWS

Home | Current Version | Previous Version | Text Only | Print | Product List | Glossary On
Versions: 1 2 3 4 5 6 7 8 9 10 11 12
000
FTUS42 TJSJ 211100 RRA
TAFJSJ
TAF
TJSJ 211142Z 2112/2212 12004KT P6SM FEW030 FEW050
     FM211300 08013KT P6SM SCT025
     FM212300 09005KT P6SM FEW025=

USA.gov is the U.S. government's official web portal to all federal, state and local government web resources and services.